Time;durP1;ratioP1;P1;durP2;ratioP2;P2;SDS_P1;SDS_P2;PMS_P1;PMS_P2;Temp;Humidity;BMP_temperature;BMP_pressure;BME280_temperature;BME280_humidity;BME280_pressure;Samples;Min_cycle;Max_cycle;Signal;HPM_P1;HPM_P2
2023/12/02 00:01:28;;;;;;;86.53;22.45;;;;;;;-0.79;100.00;95934.84;5104947;28;20738;-79
2023/12/02 00:03:54;;;;;;;90.65;22.73;;;;;;;-0.79;100.00;95942.63;5086714;28;20402;-79
2023/12/02 00:06:20;;;;;;;116.55;28.15;;;;;;;-0.80;100.00;95934.03;5105128;28;20433;-78
2023/12/02 00:08:46;;;;;;;100.75;26.65;;;;;;;-0.81;100.00;95929.84;5104215;28;20409;-80
2023/12/02 00:11:12;;;;;;;152.23;35.28;;;;;;;-0.82;100.00;95933.44;5104084;28;20770;-80
2023/12/02 00:13:40;;;;;;;119.20;29.38;;;;;;;-0.81;100.00;95936.84;5104096;28;20463;-79
2023/12/02 00:16:07;;;;;;;114.40;28.65;;;;;;;-0.82;100.00;95937.84;5084438;28;20785;-79
2023/12/02 00:18:33;;;;;;;119.83;30.83;;;;;;;-0.82;100.00;95941.25;5103876;28;20539;-79
2023/12/02 00:21:00;;;;;;;91.63;25.15;;;;;;;-0.82;100.00;95949.03;5101451;28;20401;-79
2023/12/02 00:23:26;;;;;;;93.80;24.67;;;;;;;-0.81;100.00;95945.44;5100034;28;20447;-79
2023/12/02 00:25:52;;;;;;;106.30;27.45;;;;;;;-0.82;100.00;95949.03;5099637;28;20759;-79
2023/12/02 00:28:20;;;;;;;111.80;28.02;;;;;;;-0.83;100.00;95950.03;5098877;28;20890;-78
2023/12/02 00:30:47;;;;;;;149.85;35.72;;;;;;;-0.82;100.00;95953.44;5099555;28;20390;-79
2023/12/02 00:33:14;;;;;;;130.30;31.17;;;;;;;-0.84;100.00;95953.69;5099232;28;20390;-78
2023/12/02 00:35:40;;;;;;;135.57;31.42;;;;;;;-0.84;100.00;95955.47;5099482;28;20467;-79
2023/12/02 00:38:06;;;;;;;117.70;29.37;;;;;;;-0.84;100.00;95961.47;5098087;28;20405;-79
2023/12/02 00:40:32;;;;;;;107.32;26.60;;;;;;;-0.84;100.00;95960.66;5098583;28;20390;-79
2023/12/02 00:42:58;;;;;;;103.57;26.23;;;;;;;-0.84;100.00;95971.84;5098636;28;20405;-79
2023/12/02 00:45:24;;;;;;;142.10;33.50;;;;;;;-0.84;100.00;95968.47;5099603;28;20449;-79
2023/12/02 00:47:52;;;;;;;113.50;27.60;;;;;;;-0.84;100.00;95960.66;5099796;28;20394;-79
2023/12/02 00:50:18;;;;;;;145.82;33.80;;;;;;;-0.85;100.00;95957.28;5100370;28;20395;-79
2023/12/02 00:52:44;;;;;;;185.45;42.00;;;;;;;-0.86;100.00;95962.69;5101081;28;20400;-79
2023/12/02 00:55:10;;;;;;;173.13;37.88;;;;;;;-0.87;100.00;95967.06;5096912;28;20864;-79
2023/12/02 00:57:36;;;;;;;146.40;34.53;;;;;;;-0.87;100.00;95976.66;5096044;28;20406;-79
2023/12/02 01:00:04;;;;;;;142.27;32.15;;;;;;;-0.87;100.00;95966.28;5098417;28;20498;-79
2023/12/02 01:02:30;;;;;;;115.47;28.55;;;;;;;-0.87;100.00;95966.28;5097317;28;20444;-79
2023/12/02 01:04:57;;;;;;;97.53;25.27;;;;;;;-0.87;100.00;95961.09;5097746;28;20924;-78
2023/12/02 01:07:23;;;;;;;139.57;34.57;;;;;;;-0.87;100.00;95967.06;5099564;28;21259;-79
2023/12/02 01:09:49;;;;;;;142.15;33.25;;;;;;;-0.87;100.00;95967.06;5097566;28;20738;-79
2023/12/02 01:12:16;;;;;;;191.25;42.67;;;;;;;-0.88;100.00;95972.47;5097599;28;20386;-78
2023/12/02 01:14:42;;;;;;;191.00;42.00;;;;;;;-0.89;100.00;95970.88;5097774;28;20421;-78
2023/12/02 01:17:09;;;;;;;149.65;36.28;;;;;;;-0.90;100.00;95966.69;5097172;28;20394;-78
2023/12/02 01:19:35;;;;;;;151.17;34.57;;;;;;;-0.89;100.00;95983.88;5098567;28;20492;-79
2023/12/02 01:22:02;;;;;;;160.63;35.65;;;;;;;-0.90;100.00;95984.88;5097533;28;20401;-79
2023/12/02 01:24:28;;;;;;;129.63;30.92;;;;;;;-0.91;100.00;95983.31;5097102;28;20872;-78
2023/12/02 01:26:54;;;;;;;118.78;29.30;;;;;;;-0.92;100.00;95992.91;5097932;28;20390;-78
2023/12/02 01:29:21;;;;;;;127.13;30.60;;;;;;;-0.91;100.00;95991.09;5097886;28;20453;-78
2023/12/02 01:31:47;;;;;;;109.85;28.80;;;;;;;-0.92;100.00;95987.72;5097103;28;20390;-78
2023/12/02 01:34:13;;;;;;;144.20;33.92;;;;;;;-0.92;100.00;95989.50;5097632;28;20866;-78
2023/12/02 01:36:39;;;;;;;125.05;30.90;;;;;;;-0.92;100.00;95986.91;5097193;28;20394;-79
2023/12/02 01:39:06;;;;;;;157.70;35.38;;;;;;;-0.92;100.00;95992.91;5097302;28;20401;-78
2023/12/02 01:41:33;;;;;;;135.70;31.10;;;;;;;-0.93;100.00;96000.91;5097363;28;20423;-78
2023/12/02 01:43:59;;;;;;;118.65;27.33;;;;;;;-0.93;100.00;96004.31;5096427;28;20386;-78
2023/12/02 01:46:26;;;;;;;146.88;36.53;;;;;;;-0.93;100.00;96003.50;5097496;28;20394;-78
2023/12/02 01:48:53;;;;;;;135.80;32.58;;;;;;;-0.94;100.00;95996.72;5097628;28;20414;-78
2023/12/02 01:51:19;;;;;;;131.75;31.10;;;;;;;-0.94;100.00;95994.13;5097406;28;20390;-79
2023/12/02 01:53:45;;;;;;;159.80;36.92;;;;;;;-0.95;100.00;95989.94;5098375;28;20386;-78
2023/12/02 01:56:15;;;;;;;119.68;30.02;;;;;;;-0.96;100.00;95980.53;5097389;28;20394;-78
2023/12/02 01:58:42;;;;;;;111.15;27.88;;;;;;;-0.97;100.00;95987.53;5098547;28;20766;-78
2023/12/02 02:01:08;;;;;;;120.32;27.70;;;;;;;-0.97;100.00;96003.13;5102760;28;20392;-79
2023/12/02 02:03:34;;;;;;;131.85;31.33;;;;;;;-0.98;100.00;96001.56;5098378;28;20444;-78
2023/12/02 02:06:01;;;;;;;211.15;46.10;;;;;;;-1.00;100.00;96011.34;5097141;28;20394;-78
2023/12/02 02:08:27;;;;;;;169.82;38.50;;;;;;;-1.00;100.00;96019.13;5097284;28;20413;-78
2023/12/02 02:10:57;;;;;;;148.27;33.28;;;;;;;-1.00;100.00;96020.94;5096540;28;20545;-79
2023/12/02 02:13:25;;;;;;;136.15;32.55;;;;;;;-0.99;100.00;96019.94;5096150;28;20424;-78
2023/12/02 02:15:52;;;;;;;134.95;31.90;;;;;;;-1.00;100.00;96019.13;5095853;28;20394;-79
2023/12/02 02:18:18;;;;;;;143.63;33.60;;;;;;;-1.01;100.00;96007.16;5096581;28;20394;-79
2023/12/02 02:20:49;;;;;;;151.18;36.03;;;;;;;-1.02;100.00;96002.16;5096165;28;20866;-78
2023/12/02 02:23:17;;;;;;;135.88;33.03;;;;;;;-1.02;100.00;96005.56;5096507;28;20394;-78
2023/12/02 02:25:43;;;;;;;131.45;30.55;;;;;;;-1.02;100.00;96007.38;5095994;28;20398;-78
2023/12/02 02:28:09;;;;;;;187.18;41.03;;;;;;;-1.03;100.00;96003.97;5096138;28;20449;-78
2023/12/02 02:30:36;;;;;;;264.52;56.03;;;;;;;-1.03;100.00;96013.56;5096632;28;20391;-78
2023/12/02 02:33:02;;;;;;;213.85;46.00;;;;;;;-1.05;100.00;96002.63;5095776;28;20401;-79
2023/12/02 02:35:30;;;;;;;174.82;41.38;;;;;;;-1.07;100.00;96005.41;5095684;28;20390;-78
2023/12/02 02:37:56;;;;;;;153.95;37.13;;;;;;;-1.07;100.00;96007.22;5095882;28;20410;-78
2023/12/02 02:40:24;;;;;;;140.48;34.58;;;;;;;-1.06;100.00;96007.00;5095365;28;20443;-79
2023/12/02 02:42:50;;;;;;;126.82;29.30;;;;;;;-1.06;100.00;96014.81;5095556;28;20432;-78
2023/12/02 02:45:16;;;;;;;116.93;29.38;;;;;;;-1.05;100.00;96018.19;5095321;28;20400;-79
2023/12/02 02:47:42;;;;;;;130.00;31.95;;;;;;;-1.05;100.00;96028.56;5095241;28;20429;-79
2023/12/02 02:50:08;;;;;;;166.63;38.97;;;;;;;-1.07;100.00;96028.78;5095396;28;20463;-78
2023/12/02 02:52:34;;;;;;;158.48;38.83;;;;;;;-1.08;100.00;96040.19;5095255;28;20430;-79
2023/12/02 02:55:01;;;;;;;145.85;33.78;;;;;;;-1.08;100.00;96034.97;5095094;28;20398;-79
2023/12/02 02:57:28;;;;;;;111.00;28.45;;;;;;;-1.08;100.00;96032.38;5094862;28;20401;-79
2023/12/02 02:59:55;;;;;;;123.00;29.63;;;;;;;-1.06;100.00;96042.56;5094789;28;20398;-79
2023/12/02 03:02:21;;;;;;;112.80;27.88;;;;;;;-1.06;100.00;96050.34;5099125;28;20393;-78
2023/12/02 03:04:47;;;;;;;134.90;32.97;;;;;;;-1.06;100.00;96040.75;5117277;28;20892;-78
2023/12/02 03:07:14;;;;;;;142.75;34.58;;;;;;;-1.07;100.00;96031.38;5115535;28;20399;-78
2023/12/02 03:09:40;;;;;;;146.75;33.95;;;;;;;-1.09;100.00;96030.78;5114992;28;20992;-78
2023/12/02 03:12:06;;;;;;;139.20;33.67;;;;;;;-1.10;100.00;96025.81;5114313;28;20891;-79
2023/12/02 03:14:34;;;;;;;128.13;30.20;;;;;;;-1.09;100.00;96017.00;5114266;28;20428;-78
2023/12/02 03:17:00;;;;;;;191.45;42.42;;;;;;;-1.09;100.00;96017.81;5115116;28;20557;-78
2023/12/02 03:19:26;;;;;;;184.85;41.70;;;;;;;-1.10;100.00;96024.00;5117003;28;20399;-79
2023/12/02 03:21:52;;;;;;;186.45;41.13;;;;;;;-1.09;100.00;96032.59;5120571;28;20398;-79
2023/12/02 03:24:18;;;;;;;168.15;39.50;;;;;;;-1.11;100.00;96025.00;5116144;28;20408;-79
2023/12/02 03:26:44;;;;;;;145.52;36.72;;;;;;;-1.12;100.00;96027.81;5123283;28;20744;-79
2023/12/02 03:29:10;;;;;;;177.63;41.70;;;;;;;-1.13;100.00;96041.81;5117721;28;20442;-78
2023/12/02 03:31:38;;;;;;;182.30;40.30;;;;;;;-1.15;100.00;96041.22;5116581;28;20682;-79
2023/12/02 03:34:04;;;;;;;156.43;35.97;;;;;;;-1.17;100.00;96039.63;5116713;28;20400;-78
2023/12/02 03:36:30;;;;;;;185.10;42.00;;;;;;;-1.17;100.00;96033.63;5116693;28;20431;-78
2023/12/02 03:38:57;;;;;;;135.98;33.13;;;;;;;-1.16;100.00;96030.03;5116945;28;20399;-79
2023/12/02 03:41:23;;;;;;;120.27;30.53;;;;;;;-1.15;100.00;96030.84;5116598;28;20393;-79
2023/12/02 03:43:49;;;;;;;116.45;27.83;;;;;;;-1.14;100.00;96040.22;5116861;28;20393;-78
2023/12/02 03:46:15;;;;;;;129.07;31.25;;;;;;;-1.12;100.00;96036.38;5116705;28;20399;-78
2023/12/02 03:48:43;;;;;;;109.65;26.50;;;;;;;-1.11;100.00;96044.97;5116653;28;21165;-79
2023/12/02 03:51:09;;;;;;;128.38;30.98;;;;;;;-1.11;100.00;96056.16;5116487;28;20426;-79
2023/12/02 03:53:36;;;;;;;223.17;47.40;;;;;;;-1.13;100.00;96053.00;5116221;28;20381;-78
2023/12/02 03:56:02;;;;;;;177.65;39.70;;;;;;;-1.15;100.00;96046.41;5116423;28;20418;-79
2023/12/02 03:58:30;;;;;;;162.43;37.45;;;;;;;-1.14;100.00;96063.59;5116569;28;20431;-78
2023/12/02 04:00:57;;;;;;;146.48;34.53;;;;;;;-1.14;100.00;96061.00;5115950;28;20397;-79
2023/12/02 04:03:23;;;;;;;169.38;39.72;;;;;;;-1.17;100.00;96060.41;5116528;28;20399;-78
2023/12/02 04:05:50;;;;;;;151.13;36.25;;;;;;;-1.17;100.00;96064.78;5115934;28;20502;-79
2023/12/02 04:08:16;;;;;;;140.70;34.08;;;;;;;-1.18;100.00;96061.41;5116652;28;20480;-79
2023/12/02 04:10:43;;;;;;;173.38;38.67;;;;;;;-1.20;100.00;96066.00;5117125;28;20403;-78
2023/12/02 04:13:09;;;;;;;150.75;34.55;;;;;;;-1.20;100.00;96068.59;5120667;28;20456;-79
2023/12/02 04:15:35;;;;;;;122.43;28.47;;;;;;;-1.20;100.00;96068.59;5116897;28;20414;-78
2023/12/02 04:18:02;;;;;;;143.88;36.72;;;;;;;-1.19;100.00;96072.00;5118633;28;20399;-82
2023/12/02 04:20:29;;;;;;;146.20;35.80;;;;;;;-1.18;100.00;96078.78;5120308;28;20392;-81
2023/12/02 04:22:56;;;;;;;141.25;32.40;;;;;;;-1.19;100.00;96085.78;5121105;28;20395;-82
2023/12/02 04:25:22;;;;;;;101.47;27.95;;;;;;;-1.17;100.00;96098.53;5119753;28;20388;-81
2023/12/02 04:27:48;;;;;;;104.85;28.10;;;;;;;-1.16;100.00;96100.13;5124824;28;20392;-81
2023/12/02 04:30:16;;;;;;;102.00;27.40;;;;;;;-1.18;100.00;96108.13;5123454;28;20760;-82
2023/12/02 04:32:42;;;;;;;87.13;23.00;;;;;;;-1.17;100.00;96112.31;5126116;28;20448;-80
2023/12/02 04:35:08;;;;;;;81.15;23.40;;;;;;;-1.17;100.00;96109.72;5120867;28;20396;-82
2023/12/02 04:37:35;;;;;;;77.80;21.27;;;;;;;-1.16;100.00;96115.72;5117295;28;20479;-80
2023/12/02 04:40:04;;;;;;;75.07;20.35;;;;;;;-1.14;100.00;96120.72;5121340;28;20491;-82
2023/12/02 04:42:30;;;;;;;110.10;28.23;;;;;;;-1.14;100.00;96131.91;5124403;28;20868;-81
2023/12/02 04:44:56;;;;;;;139.32;34.33;;;;;;;-1.15;100.00;96126.91;5123939;28;20790;-81
2023/12/02 04:47:23;;;;;;;151.18;35.58;;;;;;;-1.16;100.00;96136.50;5123301;28;20396;-82
2023/12/02 04:49:49;;;;;;;132.13;33.13;;;;;;;-1.20;100.00;96135.28;5123746;28;20836;-81
2023/12/02 04:52:15;;;;;;;187.57;45.78;;;;;;;-1.22;100.00;96139.91;5122815;28;20448;-82
2023/12/02 04:54:41;;;;;;;156.50;36.90;;;;;;;-1.26;100.00;96139.53;5123112;28;20384;-81
2023/12/02 04:57:08;;;;;;;124.35;31.83;;;;;;;-1.27;100.00;96150.91;5122629;28;20400;-80
2023/12/02 04:59:35;;;;;;;126.20;31.00;;;;;;;-1.27;100.00;96147.50;5118962;28;20396;-81
2023/12/02 05:02:01;;;;;;;116.82;30.88;;;;;;;-1.26;100.00;96157.69;5121418;28;20388;-80
2023/12/02 05:04:27;;;;;;;137.47;34.27;;;;;;;-1.27;100.00;96153.50;5121081;28;20783;-81
2023/12/02 05:06:53;;;;;;;122.45;31.52;;;;;;;-1.27;100.00;96153.50;5121105;28;20396;-80
2023/12/02 05:09:21;;;;;;;100.78;27.92;;;;;;;-1.27;100.00;96158.69;5121561;28;20848;-81
2023/12/02 05:11:47;;;;;;;110.00;28.27;;;;;;;-1.27;100.00;96150.91;5121291;28;20404;-81
2023/12/02 05:14:14;;;;;;;110.80;28.65;;;;;;;-1.26;100.00;96162.88;5122113;28;20479;-80
2023/12/02 05:16:42;;;;;;;105.15;28.00;;;;;;;-1.26;100.00;96160.28;5122724;28;20420;-80
2023/12/02 05:19:08;;;;;;;123.07;30.93;;;;;;;-1.23;100.00;96159.09;5122093;28;20396;-80
2023/12/02 05:21:36;;;;;;;138.13;33.25;;;;;;;-1.23;100.00;96161.69;5123124;28;20442;-80
2023/12/02 05:24:03;;;;;;;155.50;37.92;;;;;;;-1.23;100.00;96153.91;5122575;28;20396;-81
2023/12/02 05:26:29;;;;;;;151.93;35.80;;;;;;;-1.25;100.00;96153.31;5119312;27;20392;-78
2023/12/02 05:28:55;;;;;;;169.07;40.40;;;;;;;-1.26;100.00;96164.69;5118470;28;20420;-78
2023/12/02 05:31:24;;;;;;;182.75;43.55;;;;;;;-1.31;100.00;96161.91;5120463;28;20483;-80
2023/12/02 05:33:50;;;;;;;160.82;38.67;;;;;;;-1.36;100.00;96167.75;5119001;28;20417;-78
2023/12/02 05:36:16;;;;;;;130.05;33.20;;;;;;;-1.38;100.00;96172.34;5101788;28;20422;-80
2023/12/02 05:38:42;;;;;;;130.02;32.10;;;;;;;-1.39;100.00;96168.16;5120131;28;20457;-78
2023/12/02 05:41:08;;;;;;;140.65;35.90;;;;;;;-1.37;100.00;96175.72;5120129;28;20399;-79
2023/12/02 05:43:34;;;;;;;133.98;35.50;;;;;;;-1.37;100.00;96183.50;5121546;28;20864;-79
2023/12/02 05:46:00;;;;;;;160.52;36.60;;;;;;;-1.40;100.00;96183.91;5119644;28;20722;-79
2023/12/02 05:48:28;;;;;;;137.90;33.83;;;;;;;-1.40;100.00;96186.50;5131007;27;20391;-79
2023/12/02 05:50:54;;;;;;;141.57;36.67;;;;;;;-1.41;100.00;96197.88;5139566;27;20398;-79
2023/12/02 05:53:20;;;;;;;130.57;30.90;;;;;;;-1.41;100.00;96208.28;5118741;27;20388;-78
2023/12/02 05:55:46;;;;;;;120.75;31.20;;;;;;;-1.40;100.00;96215.84;5117773;28;20385;-78
2023/12/02 05:58:12;;;;;;;172.85;40.35;;;;;;;-1.42;100.00;96217.84;5118094;28;20431;-78
2023/12/02 06:00:39;;;;;;;183.57;40.55;;;;;;;-1.45;100.00;96217.47;5117604;28;20416;-77
2023/12/02 06:03:05;;;;;;;156.07;36.63;;;;;;;-1.47;100.00;96225.47;5113634;28;20392;-78
2023/12/02 06:05:32;;;;;;;160.07;37.17;;;;;;;-1.48;100.00;96223.06;5107779;28;20469;-78
2023/12/02 06:07:58;;;;;;;166.35;39.38;;;;;;;-1.51;100.00;96223.50;5108383;28;20928;-78
2023/12/02 06:10:24;;;;;;;150.97;35.33;;;;;;;-1.53;100.00;96233.25;5115965;28;20730;-78
2023/12/02 06:12:51;;;;;;;142.07;33.67;;;;;;;-1.54;100.00;96229.88;5115186;28;20396;-77
2023/12/02 06:15:17;;;;;;;164.43;38.70;;;;;;;-1.53;100.00;96230.66;5115777;28;20484;-78
2023/12/02 06:17:43;;;;;;;148.18;37.70;;;;;;;-1.53;100.00;96234.06;5116144;28;20403;-78
2023/12/02 06:20:11;;;;;;;154.38;40.15;;;;;;;-1.53;100.00;96231.47;5120288;27;20430;-79
2023/12/02 06:22:38;;;;;;;158.73;38.03;;;;;;;-1.53;100.00;96233.25;5130285;27;21074;-78
2023/12/02 06:25:06;;;;;;;158.30;38.08;;;;;;;-1.53;100.00;96230.66;5124703;27;20396;-78
2023/12/02 06:27:32;;;;;;;163.18;40.15;;;;;;;-1.54;100.00;96234.25;5124987;27;20434;-78
2023/12/02 06:29:58;;;;;;;153.30;38.53;;;;;;;-1.56;100.00;96240.44;5129920;27;20408;-78
2023/12/02 06:32:24;;;;;;;183.07;43.03;;;;;;;-1.57;100.00;96241.44;5132574;27;20449;-79
2023/12/02 06:34:51;;;;;;;208.23;48.22;;;;;;;-1.59;100.00;96237.47;5129687;27;20895;-79
2023/12/02 06:37:17;;;;;;;190.80;43.20;;;;;;;-1.62;100.00;96243.06;5121434;27;20430;-81
2023/12/02 06:39:46;;;;;;;160.98;38.88;;;;;;;-1.62;100.00;96243.84;5122237;27;20392;-80
2023/12/02 06:42:12;;;;;;;153.38;35.85;;;;;;;-1.61;100.00;96253.25;5123945;27;20396;-80
2023/12/02 06:44:38;;;;;;;138.05;34.13;;;;;;;-1.59;100.00;96261.63;5125973;27;20392;-80
2023/12/02 06:47:04;;;;;;;177.65;41.50;;;;;;;-1.59;100.00;96264.22;5127695;27;20388;-80
2023/12/02 06:49:30;;;;;;;171.52;39.72;;;;;;;-1.61;100.00;96265.41;5124801;27;20432;-81
2023/12/02 06:51:57;;;;;;;191.63;44.67;;;;;;;-1.62;100.00;96264.63;5136168;27;20380;-79
2023/12/02 06:54:23;;;;;;;162.75;39.08;;;;;;;-1.66;100.00;96271.22;5127032;27;20407;-79
2023/12/02 06:56:50;;;;;;;163.25;39.17;;;;;;;-1.65;100.00;96282.38;5129513;27;20386;-79
2023/12/02 06:59:16;;;;;;;134.57;34.70;;;;;;;-1.65;100.00;96274.59;5123992;27;20393;-79
2023/12/02 07:01:42;;;;;;;109.63;30.88;;;;;;;-1.60;100.00;96285.19;5121602;27;20798;-79
2023/12/02 07:04:09;;;;;;;149.57;39.10;;;;;;;-1.53;100.00;96291.16;5117729;27;20400;-79
2023/12/02 07:06:35;;;;;;;175.63;42.10;;;;;;;-1.53;100.00;96301.53;5116085;27;20402;-79
2023/12/02 07:09:01;;;;;;;156.07;39.60;;;;;;;-1.53;100.00;96296.34;5119877;27;20964;-80
2023/12/02 07:11:27;;;;;;;134.70;36.42;;;;;;;-1.54;100.00;96312.91;5116840;27;20396;-80
2023/12/02 07:13:54;;;;;;;139.68;37.42;;;;;;;-1.56;100.00;96312.31;5118211;28;20497;-81
2023/12/02 07:16:21;;;;;;;143.60;40.47;;;;;;;-1.58;100.00;96317.69;5118309;28;20427;-80
2023/12/02 07:18:47;;;;;;;146.40;39.05;;;;;;;-1.63;100.00;96317.50;5118096;28;20396;-80
2023/12/02 07:21:13;;;;;;;141.52;36.15;;;;;;;-1.66;100.00;96325.69;5118270;28;20770;-81
2023/12/02 07:23:39;;;;;;;119.20;33.88;;;;;;;-1.66;100.00;96330.09;5116534;28;20385;-78
2023/12/02 07:26:06;;;;;;;114.90;30.75;;;;;;;-1.68;100.00;96319.91;5116424;28;20877;-78
2023/12/02 07:28:32;;;;;;;104.50;29.88;;;;;;;-1.67;100.00;96321.50;5114650;28;20472;-79
2023/12/02 07:30:59;;;;;;;128.10;35.55;;;;;;;-1.66;100.00;96319.72;5116495;28;20458;-79
2023/12/02 07:33:26;;;;;;;110.53;31.20;;;;;;;-1.68;100.00;96319.09;5114427;28;20393;-78
2023/12/02 07:35:52;;;;;;;106.35;30.67;;;;;;;-1.68;100.00;96327.69;5115423;28;20403;-78
2023/12/02 07:38:18;;;;;;;87.93;26.15;;;;;;;-1.66;100.00;96333.47;5106837;27;20410;-78
2023/12/02 07:40:45;;;;;;;102.13;29.50;;;;;;;-1.65;100.00;96334.25;5104197;28;20483;-78
2023/12/02 07:43:11;;;;;;;97.53;28.95;;;;;;;-1.64;100.00;96339.25;5114613;27;20472;-77
2023/12/02 07:45:37;;;;;;;103.85;29.00;;;;;;;-1.63;100.00;96346.03;5115154;28;20415;-78
2023/12/02 07:48:05;;;;;;;137.00;35.60;;;;;;;-1.62;100.00;96359.81;5112589;27;20487;-77
2023/12/02 07:50:31;;;;;;;122.68;33.47;;;;;;;-1.64;100.00;96361.78;5107579;28;20404;-77
2023/12/02 07:52:58;;;;;;;127.70;34.25;;;;;;;-1.65;100.00;96373.97;5106084;28;20412;-78
2023/12/02 07:55:24;;;;;;;112.00;31.42;;;;;;;-1.64;100.00;96379.97;5112274;27;20388;-78
2023/12/02 07:57:50;;;;;;;131.20;35.63;;;;;;;-1.64;100.00;96378.16;5124670;27;20779;-78
2023/12/02 08:00:17;;;;;;;136.10;33.30;;;;;;;-1.66;100.00;96385.38;5124347;27;20435;-77
2023/12/02 08:02:43;;;;;;;101.90;28.92;;;;;;;-1.68;100.00;96384.75;5110991;27;20488;-78
2023/12/02 08:05:10;;;;;;;91.93;27.25;;;;;;;-1.68;100.00;96386.56;5104496;27;20408;-77
2023/12/02 08:07:37;;;;;;;102.65;27.25;;;;;;;-1.69;100.00;96387.53;5116582;28;20407;-79
2023/12/02 08:10:03;;;;;;;88.78;26.42;;;;;;;-1.69;100.00;96398.72;5118530;28;20424;-79
2023/12/02 08:12:29;;;;;;;86.10;23.40;;;;;;;-1.71;100.00;96407.69;5118258;28;20400;-78
2023/12/02 08:14:55;;;;;;;83.10;24.33;;;;;;;-1.73;100.00;96405.28;5117951;28;20396;-79
2023/12/02 08:17:22;;;;;;;76.07;21.33;;;;;;;-1.73;100.00;96410.47;5118014;28;20405;-80
2023/12/02 08:19:48;;;;;;;73.53;22.17;;;;;;;-1.73;100.00;96410.47;5123409;28;20391;-79
2023/12/02 08:22:19;;;;;;;76.68;23.25;;;;;;;-1.73;100.00;96420.84;5122300;28;20419;-78
2023/12/02 08:24:45;;;;;;;87.32;24.77;;;;;;;-1.72;100.00;96414.66;5130539;28;20473;-79
2023/12/02 08:27:11;;;;;;;99.30;30.27;;;;;;;-1.69;100.00;96423.88;5122795;28;20493;-79
2023/12/02 08:29:38;;;;;;;103.90;28.35;;;;;;;-1.71;100.00;96425.84;5122509;28;20412;-81
2023/12/02 08:32:05;;;;;;;91.88;26.08;;;;;;;-1.72;100.00;96430.25;5127662;28;20398;-79
2023/12/02 08:34:31;;;;;;;88.05;25.23;;;;;;;-1.71;100.00;96426.66;5131198;28;20481;-79
2023/12/02 08:36:57;;;;;;;90.03;26.77;;;;;;;-1.70;100.00;96437.84;5131731;28;20393;-79
2023/12/02 08:39:24;;;;;;;90.88;25.10;;;;;;;-1.69;100.00;96444.63;5132078;28;20485;-80
2023/12/02 08:41:51;;;;;;;94.70;26.33;;;;;;;-1.70;100.00;96448.22;5132067;28;20388;-79
2023/12/02 08:44:17;;;;;;;94.93;26.50;;;;;;;-1.71;100.00;96452.59;5126181;28;20792;-78
2023/12/02 08:46:43;;;;;;;85.70;24.30;;;;;;;-1.72;100.00;96453.59;5107519;28;20405;-79
2023/12/02 08:49:09;;;;;;;97.85;29.35;;;;;;;-1.69;100.00;96457.59;5128927;28;20402;-79
2023/12/02 08:51:35;;;;;;;162.38;42.05;;;;;;;-1.73;100.00;96451.97;5128027;28;20770;-79
2023/12/02 08:54:03;;;;;;;149.30;38.60;;;;;;;-1.79;100.00;96459.75;5129672;28;20476;-79
2023/12/02 08:56:30;;;;;;;156.15;38.70;;;;;;;-1.81;100.00;96464.34;5121149;28;20469;-80
2023/12/02 08:58:57;;;;;;;130.82;36.38;;;;;;;-1.82;100.00;96478.31;5124308;28;20447;-78
2023/12/02 09:01:23;;;;;;;126.43;33.55;;;;;;;-1.86;100.00;96469.31;5119505;28;20389;-80
2023/12/02 09:03:49;;;;;;;108.97;31.50;;;;;;;-1.86;100.00;96479.69;5119340;28;20395;-78
2023/12/02 09:06:16;;;;;;;107.80;29.63;;;;;;;-1.86;100.00;96483.09;5120139;28;20396;-78
2023/12/02 09:08:42;;;;;;;94.82;29.40;;;;;;;-1.84;100.00;96488.88;5132214;28;20395;-79
2023/12/02 09:11:08;;;;;;;96.60;27.75;;;;;;;-1.83;100.00;96492.28;5121261;28;20388;-80
2023/12/02 09:13:43;;;;;;;99.90;27.58;;;;;;;-1.82;100.00;96488.69;5119867;28;20460;-78
2023/12/02 09:16:12;;;;;;;90.47;25.40;;;;;;;-1.82;100.00;96497.28;5120067;28;20466;-79
2023/12/02 09:18:38;;;;;;;82.63;23.83;;;;;;;-1.82;100.00;96510.25;5120075;28;20388;-79
2023/12/02 09:21:25;;;;;;;118.40;34.08;;;;;;;-1.81;100.00;96506.66;5113100;28;20405;-79
2023/12/02 09:23:52;;;;;;;116.13;30.45;;;;;;;-1.81;100.00;96516.22;5112337;28;20408;-78
2023/12/02 09:26:25;;;;;;;100.07;28.10;;;;;;;-1.80;100.00;96523.00;5112431;27;20834;-79
2023/12/02 09:28:54;;;;;;;97.75;26.42;;;;;;;-1.79;100.00;96522.00;5139875;27;20383;-80
2023/12/02 09:31:20;;;;;;;100.43;27.27;;;;;;;-1.77;100.00;96527.81;5103893;28;20676;-78
2023/12/02 09:33:54;;;;;;;109.18;29.67;;;;;;;-1.76;100.00;96538.00;5103429;28;20733;-79
2023/12/02 09:36:31;;;;;;;100.23;27.03;;;;;;;-1.77;100.00;96540.78;5110833;28;20392;-79
2023/12/02 09:39:20;;;;;;;107.72;27.65;;;;;;;-1.77;100.00;96551.94;5122087;28;20392;-78
2023/12/02 09:41:49;;;;;;;104.27;28.10;;;;;;;-1.76;100.00;96555.34;5141208;27;20402;-80
2023/12/02 09:44:24;;;;;;;84.68;24.48;;;;;;;-1.76;100.00;96550.16;5140915;27;20418;-79
2023/12/02 09:47:00;;;;;;;84.43;23.40;;;;;;;-1.75;100.00;96551.78;5140179;27;20415;-79
2023/12/02 09:49:44;;;;;;;79.63;22.38;;;;;;;-1.74;100.00;96556.78;5121001;28;20412;-79
2023/12/02 09:52:27;;;;;;;71.70;21.80;;;;;;;-1.72;100.00;96546.16;5113138;28;20422;-78
2023/12/02 09:55:03;;;;;;;68.22;20.80;;;;;;;-1.72;100.00;96544.38;5099318;28;20397;-78
2023/12/02 09:57:33;;;;;;;122.03;30.63;;;;;;;-1.71;100.00;96545.19;5099996;28;20400;-79
2023/12/02 10:00:09;;;;;;;83.05;24.30;;;;;;;-1.72;100.00;96549.56;5112831;27;20402;-79
2023/12/02 10:02:55;;;;;;;80.40;23.13;;;;;;;-1.73;100.00;96545.38;5125107;27;20415;-78
2023/12/02 10:05:22;;;;;;;113.28;29.02;;;;;;;-1.73;100.00;96553.16;5122183;28;20392;-79
2023/12/02 10:08:00;;;;;;;94.35;25.27;;;;;;;-1.72;100.00;96551.38;5104641;28;20445;-82
2023/12/02 10:10:31;;;;;;;102.23;27.30;;;;;;;-1.73;100.00;96544.59;5125316;28;20510;-83
2023/12/02 10:13:11;;;;;;;96.65;25.83;;;;;;;-1.72;100.00;96554.75;5123239;28;20393;-81
2023/12/02 10:15:41;;;;;;;113.45;30.63;;;;;;;-1.69;100.00;96546.59;5122285;28;20388;-81
2023/12/02 10:18:12;;;;;;;104.95;30.48;;;;;;;-1.68;100.00;96553.38;5122174;28;20414;-80
2023/12/02 10:20:41;;;;;;;99.55;28.55;;;;;;;-1.65;100.00;96559.97;5122034;28;20782;-78
2023/12/02 10:23:16;;;;;;;102.53;26.95;;;;;;;-1.63;100.00;96569.16;5124871;28;20485;-79
2023/12/02 10:25:55;;;;;;;119.65;30.98;;;;;;;-1.60;100.00;96565.38;5124049;28;20499;-78
2023/12/02 10:28:28;;;;;;;103.93;27.13;;;;;;;-1.57;100.00;96570.97;5131372;28;20385;-79
2023/12/02 10:31:04;;;;;;;95.63;26.52;;;;;;;-1.52;100.00;96572.22;5120529;28;20779;-79
2023/12/02 10:33:39;;;;;;;137.95;35.33;;;;;;;-1.52;100.00;96565.22;5120795;27;20447;-79
2023/12/02 10:36:10;;;;;;;120.10;31.42;;;;;;;-1.52;100.00;96572.22;5126517;27;20390;-80
2023/12/02 10:38:45;;;;;;;111.38;29.00;;;;;;;-1.51;100.00;96563.44;5142945;27;20402;-80
2023/12/02 10:41:16;;;;;;;90.20;24.87;;;;;;;-1.51;100.00;96573.81;5142899;27;20398;-79
2023/12/02 10:43:44;;;;;;;85.50;23.65;;;;;;;-1.50;100.00;96581.38;5143355;27;20395;-79
2023/12/02 10:46:12;;;;;;;91.32;27.13;;;;;;;-1.52;100.00;96580.78;5142756;27;20731;-79
2023/12/02 10:48:40;;;;;;;97.53;27.35;;;;;;;-1.55;100.00;96581.16;5142504;27;20473;-79
2023/12/02 10:51:08;;;;;;;103.07;29.15;;;;;;;-1.57;100.00;96586.53;5144339;27;20440;-79
2023/12/02 10:53:37;;;;;;;113.55;30.30;;;;;;;-1.58;100.00;96586.75;5143136;27;20470;-79
2023/12/02 10:56:10;;;;;;;111.88;29.33;;;;;;;-1.62;100.00;96590.72;5149865;27;20398;-79
2023/12/02 10:58:39;;;;;;;90.88;26.42;;;;;;;-1.62;100.00;96594.13;5154016;27;20450;-79
2023/12/02 11:01:07;;;;;;;99.75;27.33;;;;;;;-1.62;100.00;96593.31;5147558;27;20378;-79
2023/12/02 11:03:47;;;;;;;88.50;26.80;;;;;;;-1.60;100.00;96593.94;5143988;27;20420;-79